Map

Track Data

SID SEASON NUMBER BASIN SUBBASIN NAME ISO_TIME NATURE LAT LON WMO_WIND WMO_PRES WMO_AGENCY TRACK_TYPE DIST2LAND LANDFALL IFLAG USA_AGENCY USA_ATCF_ID USA_LAT USA_LON USA_RECORD USA_STATUS USA_WIND USA_PRES USA_SSHS USA_R34_NE USA_R34_SE USA_R34_SW USA_R34_NW USA_R50_NE USA_R50_SE USA_R50_SW USA_R50_NW USA_R64_NE USA_R64_SE USA_R64_SW USA_R64_NW USA_POCI USA_ROCI USA_RMW USA_EYE TOKYO_LAT TOKYO_LON TOKYO_GRADE TOKYO_WIND TOKYO_PRES TOKYO_R50_DIR TOKYO_R50_LONG TOKYO_R50_SHORT TOKYO_R30_DIR TOKYO_R30_LONG TOKYO_R30_SHORT TOKYO_LAND CMA_LAT CMA_LON CMA_CAT CMA_WIND CMA_PRES HKO_LAT HKO_LON HKO_CAT HKO_WIND HKO_PRES NEWDELHI_LAT NEWDELHI_LON NEWDELHI_GRADE NEWDELHI_WIND NEWDELHI_PRES NEWDELHI_CI NEWDELHI_DP NEWDELHI_POCI REUNION_LAT REUNION_LON REUNION_TYPE REUNION_WIND REUNION_PRES REUNION_TNUM REUNION_CI REUNION_RMW REUNION_R34_NE REUNION_R34_SE REUNION_R34_SW REUNION_R34_NW REUNION_R50_NE REUNION_R50_SE REUNION_R50_SW REUNION_R50_NW REUNION_R64_NE REUNION_R64_SE REUNION_R64_SW REUNION_R64_NW BOM_LAT BOM_LON BOM_TYPE BOM_WIND BOM_PRES BOM_TNUM BOM_CI BOM_RMW BOM_R34_NE BOM_R34_SE BOM_R34_SW BOM_R34_NW BOM_R50_NE BOM_R50_SE BOM_R50_SW BOM_R50_NW BOM_R64_NE BOM_R64_SE BOM_R64_SW BOM_R64_NW BOM_ROCI BOM_POCI BOM_EYE BOM_POS_METHOD BOM_PRES_METHOD NADI_LAT NADI_LON NADI_CAT NADI_WIND NADI_PRES WELLINGTON_LAT WELLINGTON_LON WELLINGTON_WIND WELLINGTON_PRES DS824_LAT DS824_LON DS824_STAGE DS824_WIND DS824_PRES TD9636_LAT TD9636_LON TD9636_STAGE TD9636_WIND TD9636_PRES TD9635_LAT TD9635_LON TD9635_WIND TD9635_PRES TD9635_ROCI NEUMANN_LAT NEUMANN_LON NEUMANN_CLASS NEUMANN_WIND NEUMANN_PRES MLC_LAT MLC_LON MLC_CLASS MLC_WIND MLC_PRES USA_GUST BOM_GUST BOM_GUST_PER REUNION_GUST REUNION_GUST_PER USA_SEAHGT USA_SEARAD_NE USA_SEARAD_SE USA_SEARAD_SW USA_SEARAD_NW STORM_SPEED STORM_DIR
1969190N12258 1969 39 EP MM BERNICE 1969-07-09 00:00:00 TS 12.4000 -102.200 25 hurdat_epa main 551 551 O________OO___ hurdat_epa EP021969 12.4000 -102.200 TD 25 -1 12.4000 -102.200 TC 25 12.4000 -102.200 1 9 228
1969190N12258 1969 39 EP MM BERNICE 1969-07-09 03:00:00 TS 12.0945 -102.542 main 596 596 P________PP___ EP021969 12.0951 -102.545 TD 25 -1 12.0951 -102.545 TC 25 12.0921 -102.532 1 9 229
1969190N12258 1969 39 EP MM BERNICE 1969-07-09 06:00:00 TS 11.7995 -102.896 25 hurdat_epa main 645 645 O________OP___ hurdat_epa EP021969 11.8000 -102.900 TD 25 -1 11.8000 -102.900 TC 25 11.7973 -102.881 1 9 232
1969190N12258 1969 39 EP MM BERNICE 1969-07-09 09:00:00 TS 11.5277 -103.275 main 691 691 P________PP___ EP021969 11.5274 -103.277 TD 25 -1 11.5274 -103.277 TC 25 11.5288 -103.264 1 9 238
1969190N12258 1969 39 EP MM BERNICE 1969-07-09 12:00:00 TS 11.3000 -103.700 25 hurdat_epa main 727 727 O________OO___ hurdat_epa EP021969 11.3000 -103.700 TD 25 -1 11.3000 -103.700 TC 25 11.3000 -103.700 1 10 246
1969190N12258 1969 39 EP MM BERNICE 1969-07-09 15:00:00 TS 11.1203 -104.187 main 770 770 P________PP___ EP021969 11.1200 -104.185 TD 25 -1 11.1200 -104.185 TC 25 11.1216 -104.196 1 10 253
1969190N12258 1969 39 EP MM BERNICE 1969-07-09 18:00:00 TS 10.9991 -104.704 25 hurdat_epa main 805 805 O________OP___ hurdat_epa EP021969 11.0000 -104.700 TD 25 -1 11.0000 -104.700 TC 25 10.9955 -104.722 1 10 259
1969190N12258 1969 39 EP MM BERNICE 1969-07-09 21:00:00 TS 10.9204 -105.231 main 841 841 P________PP___ EP021969 10.9200 -105.230 TD 25 -1 10.9200 -105.230 TC 25 10.9216 -105.237 1 10 264
1969190N12258 1969 39 EP MM BERNICE 1969-07-10 00:00:00 TS 10.9000 -105.700 25 hurdat_epa main 860 860 O________OO___ hurdat_epa EP021969 10.9000 -105.700 TD 25 -1 10.9000 -105.700 TC 25 10.9000 -105.700 1 8 270
1969190N12258 1969 39 EP MM BERNICE 1969-07-10 03:00:00 TS 10.9227 -106.037 main 870 867 P________PP___ EP021969 10.9274 -106.030 TD 25 -1 10.9274 -106.030 TC 25 10.9040 -106.065 1 6 279
1969190N12258 1969 39 EP MM BERNICE 1969-07-10 06:00:00 TS 10.9919 -106.315 25 hurdat_epa main 870 868 O________OP___ hurdat_epa EP021969 11.0000 -106.300 TD 25 -1 11.0000 -106.300 TC 25 10.9595 -106.375 1 6 285
1969190N12258 1969 39 EP MM BERNICE 1969-07-10 09:00:00 TS 11.0741 -106.615 main 872 870 P________PP___ EP021969 11.0775 -106.608 TD 25 -1 11.0775 -106.608 TC 25 11.0603 -106.647 1 6 290
1969190N12258 1969 39 EP MM BERNICE 1969-07-10 12:00:00 TS 11.2000 -106.900 25 hurdat_epa main 874 863 O________OO___ hurdat_epa EP021969 11.2000 -106.900 TD 25 -1 11.2000 -106.900 TC 25 11.2000 -106.900 2 6 300
1969190N12258 1969 39 EP MM BERNICE 1969-07-10 15:00:00 TS 11.3840 -107.160 main 868 858 P________PP___ EP021969 11.3850 -107.158 TD 32 -1 11.3850 -107.158 TC 32 11.3802 -107.168 2 6 309
1969190N12258 1969 39 EP MM BERNICE 1969-07-10 18:00:00 TS 11.5985 -107.404 40 hurdat_epa main 859 850 O________OP___ hurdat_epa EP021969 11.6000 -107.400 TS 40 0 11.6000 -107.400 TC 40 11.5924 -107.422 2 6 312
1969190N12258 1969 39 EP MM BERNICE 1969-07-10 21:00:00 TS 11.8137 -107.653 main 855 842 P________PP___ EP021969 11.8150 -107.650 TS 42 0 11.8150 -107.650 TC 42 11.8084 -107.665 2 6 310
1969190N12258 1969 39 EP MM BERNICE 1969-07-11 00:00:00 TS 12.0000 -107.900 45 hurdat_epa main 848 845 O________OO___ hurdat_epa EP021969 12.0000 -107.900 TS 45 0 12.0000 -107.900 TC 45 12.0000 -107.900 2 6 302
1969190N12258 1969 39 EP MM BERNICE 1969-07-11 03:00:00 TS 12.1169 -108.152 main 857 848 P________PP___ EP021969 12.1150 -108.158 TS 45 0 12.1150 -108.158 TC 45 12.1246 -108.128 2 5 293
1969190N12258 1969 39 EP MM BERNICE 1969-07-11 06:00:00 TS 12.2045 -108.390 45 hurdat_epa main 861 859 O________OP___ hurdat_epa EP021969 12.2000 -108.400 TS 45 0 12.2000 -108.400 TC 45 12.2223 -108.350 2 5 293
1969190N12258 1969 39 EP MM BERNICE 1969-07-11 09:00:00 TS 12.3017 -108.594 main 866 864 P________PP___ EP021969 12.2999 -108.600 TS 45 0 12.2999 -108.600 TC 45 12.3089 -108.572 2 4 296
1969190N12258 1969 39 EP MM BERNICE 1969-07-11 12:00:00 TS 12.4000 -108.800 45 hurdat_epa main 871 868 O________OO___ hurdat_epa EP021969 12.4000 -108.800 TS 45 0 12.4000 -108.800 TC 45 12.4000 -108.800 2 5 294
1969190N12258 1969 39 EP MM BERNICE 1969-07-11 15:00:00 TS 12.4959 -109.039 main 874 874 P________PP___ EP021969 12.4925 -109.043 TS 45 0 12.4925 -109.043 TC 45 12.5095 -109.023 2 5 293
1969190N12258 1969 39 EP MM BERNICE 1969-07-11 18:00:00 TS 12.6054 -109.291 45 hurdat_epa main 881 878 O________OP___ hurdat_epa EP021969 12.6000 -109.300 TS 45 0 12.6000 -109.300 TC 45 12.6272 -109.255 2 5 297
1969190N12258 1969 39 EP MM BERNICE 1969-07-11 21:00:00 TS 12.7392 -109.530 main 884 878 P________PP___ EP021969 12.7349 -109.535 TS 45 0 12.7349 -109.535 TC 45 12.7563 -109.510 2 6 301
1969190N12258 1969 39 EP MM BERNICE 1969-07-12 00:00:00 TS 12.9000 -109.800 45 hurdat_epa main 884 882 O________OO___ hurdat_epa EP021969 12.9000 -109.800 TS 45 0 12.9000 -109.800 TC 45 12.9000 -109.800 2 7 301
1969190N12258 1969 39 EP MM BERNICE 1969-07-12 03:00:00 TS 13.0929 -110.128 main 886 885 P________PP___ EP021969 13.1000 -110.127 TS 45 0 13.1000 -110.127 TC 45 13.0647 -110.131 2 8 300
1969190N12258 1969 39 EP MM BERNICE 1969-07-12 06:00:00 TS 13.2885 -110.499 45 hurdat_epa main 897 896 O________OP___ hurdat_epa EP021969 13.3000 -110.500 TS 45 0 13.3000 -110.500 TC 45 13.2424 -110.497 2 8 296
1969190N12258 1969 39 EP MM BERNICE 1969-07-12 09:00:00 TS 13.4508 -110.892 main 911 911 P________PP___ EP021969 13.4575 -110.893 TS 45 0 13.4575 -110.893 TC 45 13.4240 -110.890 2 8 292
1969190N12258 1969 39 EP MM BERNICE 1969-07-12 12:00:00 TS 13.6000 -111.300 45 hurdat_epa main 933 933 O________OO___ hurdat_epa EP021969 13.6000 -111.300 TS 45 0 13.6000 -111.300 TC 45 13.6000 -111.300 2 8 291
1969190N12258 1969 39 EP MM BERNICE 1969-07-12 15:00:00 TS 13.7472 -111.691 main 956 948 P________PP___ EP021969 13.7499 -111.693 TS 60 0 13.7499 -111.693 TC 60 13.7365 -111.687 2 8 291
1969190N12258 1969 39 EP MM BERNICE 1969-07-12 18:00:00 TS 13.8939 -112.098 75 hurdat_epa main 972 972 O________OP___ hurdat_epa EP021969 13.9000 -112.100 HU 75 1 13.9000 -112.100 TC 75 13.8693 -112.091 2 9 289
1969190N12258 1969 39 EP MM BERNICE 1969-07-12 21:00:00 TS 14.0314 -112.521 main 996 996 P________PP___ EP021969 14.0348 -112.520 HU 75 1 14.0348 -112.520 TC 75 14.0176 -112.525 2 9 289
1969190N12258 1969 39 EP MM BERNICE 1969-07-13 00:00:00 TS 14.2000 -113.000 75 hurdat_epa main 1023 1015 O________OO___ hurdat_epa EP021969 14.2000 -113.000 HU 75 1 14.2000 -113.000 TC 75 14.2000 -113.000 4 11 291
1969190N12258 1969 39 EP MM BERNICE 1969-07-13 03:00:00 TS 14.4324 -113.577 main 1023 1013 P________PP___ EP021969 14.4276 -113.585 HU 75 1 14.4276 -113.585 TC 75 14.4515 -113.544 4 13 294
1969190N12258 1969 39 EP MM BERNICE 1969-07-13 06:00:00 TS 14.7071 -114.185 75 hurdat_epa main 1018 1012 O________OP___ hurdat_epa EP021969 14.7000 -114.200 HU 75 1 14.7000 -114.200 TC 75 14.7354 -114.127 4 13 297
1969190N12258 1969 39 EP MM BERNICE 1969-07-13 09:00:00 TS 15.0112 -114.756 main 1017 1007 P________PP___ EP021969 15.0074 -114.765 HU 75 1 15.0074 -114.765 TC 75 15.0265 -114.722 4 12 299
1969190N12258 1969 39 EP MM BERNICE 1969-07-13 12:00:00 TS 15.3000 -115.300 75 hurdat_epa main 1016 1012 O________OO___ hurdat_epa EP021969 15.3000 -115.300 HU 75 1 15.3000 -115.300 TC 75 15.3000 -115.300 4 11 296
1969190N12258 1969 39 EP MM BERNICE 1969-07-13 15:00:00 TS 15.5144 -115.808 main 1027 1024 P________PP___ EP021969 15.5148 -115.808 HU 75 1 15.5148 -115.808 TC 75 15.5126 -115.810 4 10 293
1969190N12258 1969 39 EP MM BERNICE 1969-07-13 18:00:00 TS 15.7013 -116.300 75 hurdat_epa main 1041 1039 O________OP___ hurdat_epa EP021969 15.7000 -116.300 HU 75 1 15.7000 -116.300 TC 75 15.7064 -116.301 4 10 292
1969190N12258 1969 39 EP MM BERNICE 1969-07-13 21:00:00 TS 15.8933 -116.792 main 1058 1058 P________PP___ EP021969 15.8923 -116.793 HU 75 1 15.8923 -116.793 TC 75 15.8970 -116.792 4 10 293
1969190N12258 1969 39 EP MM BERNICE 1969-07-14 00:00:00 TS 16.1000 -117.300 75 hurdat_epa main 1078 1077 O________OO___ hurdat_epa EP021969 16.1000 -117.300 HU 75 1 16.1000 -117.300 TC 75 16.1000 -117.300 4 11 294
1969190N12258 1969 39 EP MM BERNICE 1969-07-14 03:00:00 TS 16.3409 -117.835 main 1100 1100 P________PP___ EP021969 16.3424 -117.835 HU 75 1 16.3424 -117.835 TC 75 16.3350 -117.834 4 12 295
1969190N12258 1969 39 EP MM BERNICE 1969-07-14 06:00:00 TS 16.5968 -118.398 75 hurdat_epa main 1117 1114 O________OP___ hurdat_epa EP021969 16.6000 -118.400 HU 75 1 16.6000 -118.400 TC 75 16.5841 -118.391 4 12 295
1969190N12258 1969 39 EP MM BERNICE 1969-07-14 09:00:00 TS 16.8480 -118.978 main 1137 1128 P________PP___ EP021969 16.8498 -118.978 HU 75 1 16.8498 -118.978 TC 75 16.8411 -118.977 4 13 294
1969190N12258 1969 39 EP MM BERNICE 1969-07-14 12:00:00 TS 17.1000 -119.600 75 hurdat_epa main 1152 1150 O________OO___ hurdat_epa EP021969 17.1000 -119.600 HU 75 1 17.1000 -119.600 TC 75 17.1000 -119.600 4 14 292
1969190N12258 1969 39 EP MM BERNICE 1969-07-14 15:00:00 TS 17.3533 -120.288 main 1178 1178 P________PP___ EP021969 17.3499 -120.285 HU 60 0 17.3499 -120.285 TC 60 17.3669 -120.300 4 14 291
1969190N12258 1969 39 EP MM BERNICE 1969-07-14 18:00:00 TS 17.6062 -121.006 45 hurdat_epa main 1215 1215 O________OP___ hurdat_epa EP021969 17.6000 -121.000 TS 45 0 17.6000 -121.000 TC 45 17.6310 -121.029 4 15 290
1969190N12258 1969 39 EP MM BERNICE 1969-07-14 21:00:00 TS 17.8680 -121.739 main 1249 1249 P________PP___ EP021969 17.8651 -121.737 TS 45 0 17.8651 -121.737 TC 45 17.8795 -121.744 4 14 290
1969190N12258 1969 39 EP MM BERNICE 1969-07-15 00:00:00 TS 18.1000 -122.400 45 hurdat_epa main 1293 1293 O________OO___ hurdat_epa EP021969 18.1000 -122.400 TS 45 0 18.1000 -122.400 TC 45 18.1000 -122.400 2 12 290
1969190N12258 1969 39 EP MM BERNICE 1969-07-15 03:00:00 TS 18.2695 -122.892 main 1321 1321 P________PP___ EP021969 18.2645 -122.880 TS 45 0 18.2645 -122.880 TC 45 18.2895 -122.936 2 9 290
1969190N12258 1969 39 EP MM BERNICE 1969-07-15 06:00:00 TS 18.4101 -123.322 45 hurdat_epa main 1340 1340 O________OP___ hurdat_epa EP021969 18.4000 -123.300 TS 45 0 18.4000 -123.300 TC 45 18.4507 -123.411 2 9 289
1969190N12258 1969 39 EP MM BERNICE 1969-07-15 09:00:00 TS 18.5633 -123.805 main 1356 1356 P________PP___ EP021969 18.5574 -123.793 TS 45 0 18.5574 -123.793 TC 45 18.5866 -123.855 2 10 287
1969190N12258 1969 39 EP MM BERNICE 1969-07-15 12:00:00 TS 18.7000 -124.300 45 hurdat_epa main 1382 1382 O________OO___ hurdat_epa EP021969 18.7000 -124.300 TS 45 0 18.7000 -124.300 TC 45 18.7000 -124.300 2 10 285
1969190N12258 1969 39 EP MM BERNICE 1969-07-15 15:00:00 TS 18.8126 -124.792 main 1409 1409 P________PP___ EP021969 18.8149 -124.800 TS 45 0 18.8149 -124.800 TC 45 18.8037 -124.761 2 10 282
1969190N12258 1969 39 EP MM BERNICE 1969-07-15 18:00:00 TS 18.8972 -125.287 45 hurdat_epa main 1438 1438 O________OP___ hurdat_epa EP021969 18.9000 -125.300 TS 45 0 18.9000 -125.300 TC 45 18.8860 -125.233 2 9 279
1969190N12258 1969 39 EP MM BERNICE 1969-07-15 21:00:00 TS 18.9557 -125.764 main 1468 1468 P________PP___ EP021969 18.9571 -125.770 TS 35 0 18.9571 -125.770 TC 35 18.9503 -125.739 2 10 276
1969190N12258 1969 39 EP MM BERNICE 1969-07-16 00:00:00 TS 19.0000 -126.300 25 hurdat_epa main 1506 1506 O________OO___ hurdat_epa EP021969 19.0000 -126.300 TD 25 -1 19.0000 -126.300 TC 25 19.0000 -126.300 1 11 275
1969190N12258 1969 39 EP MM BERNICE 1969-07-16 03:00:00 TS 19.0555 -126.962 main 1554 1554 P________PP___ EP021969 19.0575 -126.970 TD 25 -1 19.0575 -126.970 TC 25 19.0473 -126.930 1 13 274
1969190N12258 1969 39 EP MM BERNICE 1969-07-16 06:00:00 TS 19.0959 -127.684 25 hurdat_epa main 1611 1611 O________OP___ hurdat_epa EP021969 19.1000 -127.700 TD 25 -1 19.1000 -127.700 TC 25 19.0796 -127.618 1 13 272
1969190N12258 1969 39 EP MM BERNICE 1969-07-16 09:00:00 TS 19.1051 -128.377 main 1668 1668 P________PP___ EP021969 19.1071 -128.385 TD 25 -1 19.1071 -128.385 TC 25 19.0971 -128.346 1 13 270
1969190N12258 1969 39 EP MM BERNICE 1969-07-16 12:00:00 TS 19.1000 -129.100 25 hurdat_epa main 1727 1727 O________OO___ hurdat_epa EP021969 19.1000 -129.100 TD 25 -1 19.1000 -129.100 TC 25 19.1000 -129.100 1 14 270
1969190N12258 1969 39 EP MM BERNICE 1969-07-16 15:00:00 TS 19.1038 -129.887 main 1795 1795 P________PP___ EP021969 19.1074 -129.892 TD 25 -1 19.1074 -129.892 TC 25 19.0893 -129.866 1 15 270
1969190N12258 1969 39 EP MM BERNICE 1969-07-16 18:00:00 TS 19.0935 -130.688 25 hurdat_epa main 1864 1864 O________OP___ hurdat_epa EP021969 19.1000 -130.700 TD 25 -1 19.1000 -130.700 TC 25 19.0674 -130.640 1 15 268
1969190N12258 1969 39 EP MM BERNICE 1969-07-16 21:00:00 TS 19.0557 -131.456 main 1935 1935 P________PP___ EP021969 19.0604 -131.465 TD 25 -1 19.0604 -131.465 TC 25 19.0367 -131.419 1 14 266
1969190N12258 1969 39 EP MM BERNICE 1969-07-17 00:00:00 TS 19.0000 -132.200 25 hurdat_epa main 2003 O________OO___ hurdat_epa EP021969 19.0000 -132.200 TD 25 -1 19.0000 -132.200 TC 25 19.0000 -132.200 1 14 265

About IBTrACS Database

This database is a web-friendly format of International Best Track Archive for Climate Stewardship (IBTrACS), a global best track data archive curated by NOAA dating back to 1842.

Updated: 2021-10-21